Terminal Aerodrome Forecast
Issued by NWS

Home | Current Version | Previous Version | Text Only | Print | Product List | Glossary On
Versions: 1 2 3 4 5 6 7 8 9 10 11 12 13 14 15 16 17 18 19 20 21 22
000
FTUS46 KLOX 262348
TAFSBP
TAF
KSBP 262348Z 2700/2724 30010KT P6SM SKC
     FM270300 30006KT P6SM SKC
     FM270900 VRB03KT 1 1/2SM BR OVC002
     FM271530 VRB03KT P6SM SKC
     FM272000 28008KT P6SM SKC=

USA.gov is the U.S. government's official web portal to all federal, state and local government web resources and services.